createdAt,value
2018-11-20T00:02:28.352Z,10.67
2018-11-20T00:05:17.866Z,10.63
2018-11-20T00:08:25.742Z,11.50
2018-11-20T00:11:21.262Z,11.63
2018-11-20T00:14:09.488Z,12.23
2018-11-20T00:16:59.713Z,10.80
2018-11-20T00:19:44.148Z,11.70
2018-11-20T00:22:45.782Z,12.23
2018-11-20T00:25:37.827Z,12.27
2018-11-20T00:28:31.228Z,12.37
2018-11-20T00:31:27.005Z,12.27
2018-11-20T00:34:17.145Z,13.40
2018-11-20T00:37:16.392Z,12.53
2018-11-20T00:40:12.332Z,11.57
2018-11-20T00:42:54.982Z,11.83
2018-11-20T00:45:56.257Z,12.33
2018-11-20T00:48:52.957Z,11.27
2018-11-20T00:51:41.502Z,12.10
2018-11-20T00:54:29.952Z,11.97
2018-11-20T00:57:22.088Z,11.70
2018-11-20T01:00:11.617Z,11.23
2018-11-20T01:03:09.722Z,11.97
2018-11-20T01:05:54.922Z,12.43
2018-11-20T01:08:43.237Z,11.77
2018-11-20T01:11:30.843Z,12.67
2018-11-20T01:14:24.147Z,12.03
2018-11-20T01:17:22.457Z,12.53
2018-11-20T01:20:10.457Z,12.00
2018-11-20T01:23:02.642Z,12.77
2018-11-20T01:26:04.352Z,12.17
2018-11-20T01:28:52.777Z,13.53
2018-11-20T01:31:42.472Z,14.27
2018-11-20T01:34:30.512Z,12.67
2018-11-20T01:37:15.731Z,13.17
2018-11-20T01:40:01.807Z,12.50
2018-11-20T01:42:49.804Z,12.87
2018-11-20T01:45:37.892Z,13.20
2018-11-20T01:48:39.728Z,13.67
2018-11-20T01:51:35.697Z,13.50
2018-11-20T01:54:24.517Z,13.80
2018-11-20T01:57:09.092Z,13.07
2018-11-20T02:00:07.553Z,12.97
2018-11-20T02:03:00.478Z,12.33
2018-11-20T02:05:59.413Z,13.10
2018-11-20T02:08:55.342Z,14.67
2018-11-20T02:11:53.577Z,14.23
2018-11-20T02:14:42.467Z,13.20
2018-11-20T02:17:33.535Z,12.70
2018-11-20T02:20:21.212Z,14.23
2018-11-20T02:23:20.013Z,13.63
2018-11-20T02:26:21.512Z,13.07
2018-11-20T02:29:26.263Z,12.50
2018-11-20T02:32:14.432Z,11.63
2018-11-20T02:34:56.353Z,12.30
2018-11-20T02:37:44.688Z,13.87
2018-11-20T02:40:35.048Z,12.57
2018-11-20T02:43:24.033Z,14.10
2018-11-20T02:46:13.834Z,14.23
2018-11-20T02:49:01.759Z,15.53
2018-11-20T02:51:50.188Z,13.23
2018-11-20T02:54:53.994Z,12.43
2018-11-20T02:57:42.353Z,12.30
2018-11-20T03:00:31.133Z,10.40
2018-11-20T03:03:35.268Z,11.87
2018-11-20T03:06:29.078Z,12.67
2018-11-20T03:09:30.862Z,10.70
2018-11-20T03:12:29.573Z,11.70
2018-11-20T03:15:19.770Z,10.67
2018-11-20T03:18:15.181Z,11.57
2018-11-20T03:21:23.157Z,12.10
2018-11-20T03:24:15.718Z,10.13
2018-11-20T03:27:08.582Z,10.10
2018-11-20T03:30:45.262Z,11.33
2018-11-20T03:33:24.268Z,10.23
2018-11-20T03:36:31.793Z,9.83
2018-11-20T03:39:19.983Z,9.80
2018-11-20T03:42:24.482Z,9.87
2018-11-20T03:45:26.447Z,9.20
2018-11-20T03:48:21.308Z,9.47
2018-11-20T03:51:22.684Z,7.57
2018-11-20T03:54:30.368Z,7.77
2018-11-20T03:57:11.863Z,6.83
2018-11-20T03:59:59.748Z,6.87
2018-11-20T04:02:56.882Z,7.20
2018-11-20T04:05:52.992Z,7.67
2018-11-20T04:08:41.538Z,6.80
2018-11-20T04:11:37.733Z,6.93
2018-11-20T04:14:26.837Z,7.17
2018-11-20T04:17:18.082Z,7.37
2018-11-20T04:20:08.023Z,7.43
2018-11-20T04:22:57.533Z,7.87
2018-11-20T04:25:50.158Z,8.20
2018-11-20T04:28:30.172Z,8.47
2018-11-20T04:31:57.754Z,8.17
2018-11-20T04:34:53.788Z,9.40
2018-11-20T04:37:37.932Z,9.20
2018-11-20T04:40:31.188Z,9.00
2018-11-20T04:43:33.022Z,8.43
2018-11-20T04:46:21.710Z,8.30
2018-11-20T04:49:10.038Z,7.37
2018-11-20T04:52:05.488Z,6.87
2018-11-20T04:54:53.622Z,6.30
2018-11-20T04:57:42.240Z,7.13
2018-11-20T05:00:24.898Z,7.43
2018-11-20T05:03:08.493Z,6.27
2018-11-20T05:05:56.970Z,7.77
2018-11-20T05:08:45.647Z,7.53
2018-11-20T05:11:30.557Z,7.23
2018-11-20T05:14:18.833Z,8.10
2018-11-20T05:16:58.723Z,6.87
2018-11-20T05:19:47.548Z,8.10
2018-11-20T05:22:49.657Z,6.67
2018-11-20T05:25:43.593Z,7.00
2018-11-20T05:28:37.397Z,6.17
2018-11-20T05:31:27.233Z,5.50
2018-11-20T05:34:04.980Z,5.87
2018-11-20T05:36:52.583Z,5.20
2018-11-20T05:39:46.767Z,5.47
2018-11-20T05:42:35.323Z,4.87
2018-11-20T05:45:17.078Z,5.00
2018-11-20T05:48:05.272Z,4.40
2018-11-20T05:50:54.618Z,4.73
2018-11-20T05:53:36.053Z,6.17
2018-11-20T05:56:18.537Z,5.40
2018-11-20T05:59:06.668Z,5.00
2018-11-20T06:01:54.593Z,4.63
2018-11-20T06:04:47.248Z,4.40
2018-11-20T06:07:43.777Z,4.90
2018-11-20T06:10:31.943Z,4.50
2018-11-20T06:13:24.675Z,4.90
2018-11-20T06:16:13.138Z,4.97
2018-11-20T06:19:08.995Z,10.83
2018-11-20T06:22:07.232Z,5.37
2018-11-20T06:24:55.907Z,5.07
2018-11-20T06:27:45.053Z,4.43
2018-11-20T06:30:52.663Z,4.37
2018-11-20T06:33:42.413Z,4.10
2018-11-20T06:36:28.122Z,4.33
2018-11-20T06:39:24.178Z,4.47
2018-11-20T06:42:12.382Z,4.43
2018-11-20T06:45:00.478Z,4.10
2018-11-20T06:47:44.767Z,4.87
2018-11-20T06:50:43.363Z,4.27
2018-11-20T06:53:31.632Z,4.40
2018-11-20T06:56:35.258Z,4.47
2018-11-20T06:59:24.803Z,4.40
2018-11-20T07:02:17.023Z,4.67
2018-11-20T07:05:07.252Z,4.53
2018-11-20T07:07:56.988Z,4.10
2018-11-20T07:10:48.742Z,4.50
2018-11-20T07:14:02.373Z,4.80
2018-11-20T07:16:52.963Z,4.97
2018-11-20T07:19:40.307Z,6.03
2018-11-20T07:22:29.095Z,5.00
2018-11-20T07:25:17.198Z,4.53
2018-11-20T07:28:05.843Z,5.13
2018-11-20T07:30:54.353Z,3.90
2018-11-20T07:33:52.778Z,4.33
2018-11-20T07:36:47.990Z,5.60
2018-11-20T07:39:55.582Z,4.57
2018-11-20T07:42:48.132Z,4.10
2018-11-20T07:45:56.147Z,4.70
2018-11-20T07:48:50.978Z,4.10
2018-11-20T07:51:49.419Z,4.40
2018-11-20T07:54:37.452Z,4.60
2018-11-20T07:57:29.477Z,4.70
2018-11-20T08:00:17.953Z,4.70
2018-11-20T08:03:20.018Z,4.30
2018-11-20T08:06:07.472Z,5.57
2018-11-20T08:08:55.473Z,4.23
2018-11-20T08:11:44.072Z,4.17
2018-11-20T08:14:41.754Z,4.10
2018-11-20T08:17:45.923Z,4.40
2018-11-20T08:20:54.429Z,4.47
2018-11-20T08:23:43.807Z,3.83
2018-11-20T08:26:40.031Z,3.70
2018-11-20T08:29:27.872Z,5.13
2018-11-20T08:32:20.934Z,4.00
2018-11-20T08:35:10.999Z,3.33
2018-11-20T08:37:56.693Z,3.90
2018-11-20T08:41:01.743Z,3.57
2018-11-20T08:43:50.028Z,3.70
2018-11-20T08:46:48.288Z,3.97
2018-11-20T08:49:36.308Z,3.60
2018-11-20T08:52:16.461Z,4.07
2018-11-20T08:54:59.052Z,4.90
2018-11-20T08:58:00.630Z,4.87
2018-11-20T09:00:39.403Z,4.07
2018-11-20T09:03:44.393Z,4.30
2018-11-20T09:06:33.863Z,4.03
2018-11-20T09:09:22.123Z,4.37
2018-11-20T09:12:14.868Z,4.70
2018-11-20T09:15:10.783Z,5.00
2018-11-20T09:18:07.463Z,4.83
2018-11-20T09:20:54.979Z,5.07
2018-11-20T09:23:44.423Z,4.87
2018-11-20T09:26:36.417Z,5.07
2018-11-20T09:29:32.018Z,4.70
2018-11-20T09:32:27.712Z,5.13
2018-11-20T09:35:20.567Z,5.20
2018-11-20T09:38:08.177Z,5.17
2018-11-20T09:41:03.513Z,5.60
2018-11-20T09:44:08.706Z,4.97
2018-11-20T09:46:57.566Z,5.37
2018-11-20T09:49:59.232Z,6.10
2018-11-20T09:52:47.865Z,5.93
2018-11-20T09:55:55.498Z,5.37
2018-11-20T09:58:43.747Z,5.00
2018-11-20T10:01:29.578Z,5.20
2018-11-20T10:04:17.808Z,5.87
2018-11-20T10:06:59.574Z,5.03
2018-11-20T10:09:52.747Z,5.37
2018-11-20T10:12:41.892Z,5.17
2018-11-20T10:15:35.367Z,5.53
2018-11-20T10:18:23.745Z,5.97
2018-11-20T10:21:28.573Z,5.73
2018-11-20T10:24:26.713Z,6.43
2018-11-20T10:27:22.959Z,6.20
2018-11-20T10:30:14.993Z,6.73
2018-11-20T10:33:05.117Z,7.40
2018-11-20T10:36:06.837Z,7.60
2018-11-20T10:39:02.209Z,7.47
2018-11-20T10:42:09.548Z,9.10
2018-11-20T10:44:57.348Z,9.77
2018-11-20T10:47:45.643Z,8.57
2018-11-20T10:50:33.768Z,9.53
2018-11-20T10:53:21.588Z,9.37
2018-11-20T10:56:26.444Z,10.20
2018-11-20T10:59:28.326Z,11.03
2018-11-20T11:03:13.277Z,12.13
2018-11-20T11:06:00.393Z,10.47
2018-11-20T11:08:47.567Z,15.43
2018-11-20T11:11:42.722Z,16.63
2018-11-20T11:14:30.361Z,15.90
2018-11-20T11:17:17.253Z,14.30
2018-11-20T11:20:09.010Z,16.73
2018-11-20T11:23:09.933Z,14.80
2018-11-20T11:26:04.734Z,13.43
2018-11-20T11:28:58.840Z,14.73
2018-11-20T11:32:00.180Z,13.67
2018-11-20T11:35:01.430Z,15.43
2018-11-20T11:37:43.371Z,17.17
2018-11-20T11:40:30.539Z,15.27
2018-11-20T11:43:18.234Z,15.57
2018-11-20T11:46:06.984Z,16.97
2018-11-20T11:49:02.279Z,17.57
2018-11-20T11:51:49.554Z,14.67
2018-11-20T11:54:54.110Z,13.43
2018-11-20T11:57:41.709Z,13.93
2018-11-20T12:00:47.784Z,14.13
2018-11-20T12:03:35.769Z,16.93
2018-11-20T12:06:33.759Z,16.17
2018-11-20T12:09:21.120Z,17.03
2018-11-20T12:12:28.698Z,16.40
2018-11-20T12:15:16.515Z,16.53
2018-11-20T12:18:00.144Z,16.60
2018-11-20T12:20:52.103Z,17.70
2018-11-20T12:23:59.644Z,17.60
2018-11-20T12:26:47.299Z,17.33
2018-11-20T12:29:39.381Z,16.40
2018-11-20T12:32:24.499Z,16.13
2018-11-20T12:35:15.610Z,17.07
2018-11-20T12:38:08.859Z,18.93
2018-11-20T12:41:07.356Z,17.57
2018-11-20T12:44:06.042Z,20.47
2018-11-20T12:46:51.099Z,21.93
2018-11-20T12:49:38.894Z,25.00
2018-11-20T12:52:33.054Z,22.47
2018-11-20T12:55:25.319Z,20.47
2018-11-20T12:58:13.960Z,19.50
2018-11-20T13:00:59.245Z,19.07
2018-11-20T13:03:47.805Z,19.63
2018-11-20T13:06:38.468Z,20.03
2018-11-20T13:09:32.789Z,21.07
2018-11-20T13:12:25.060Z,22.20
2018-11-20T13:15:12.669Z,20.77
2018-11-20T13:18:13.704Z,19.20
2018-11-20T13:21:11.375Z,24.85
2018-11-20T13:23:59.754Z,21.80
2018-11-20T13:26:51.134Z,20.10
2018-11-20T13:29:38.159Z,22.47
2018-11-20T13:32:39.115Z,20.90
2018-11-20T13:35:33.269Z,21.37
2018-11-20T13:38:40.879Z,21.63
2018-11-20T13:42:07.233Z,19.33
2018-11-20T13:45:05.009Z,20.60
2018-11-20T13:47:52.781Z,21.37
2018-11-20T13:50:46.391Z,19.73
2018-11-20T13:53:41.809Z,19.80
2018-11-20T13:56:29.023Z,19.93
2018-11-20T13:59:23.359Z,21.03
2018-11-20T14:02:31.119Z,22.43
2018-11-20T14:05:35.308Z,19.10
2018-11-20T14:08:24.408Z,19.83
2018-11-20T14:11:12.139Z,20.40
2018-11-20T14:14:09.280Z,20.90
2018-11-20T14:16:58.451Z,19.33
2018-11-20T14:19:59.085Z,19.50
2018-11-20T14:23:06.439Z,19.87
2018-11-20T14:25:59.969Z,18.70
2018-11-20T14:28:49.233Z,21.57
2018-11-20T14:31:56.284Z,21.00
2018-11-20T14:34:45.822Z,23.60
2018-11-20T14:37:43.485Z,18.20
2018-11-20T14:40:30.699Z,19.97
2018-11-20T14:43:22.079Z,20.57
2018-11-20T14:46:09.790Z,20.57
2018-11-20T14:49:04.914Z,20.73
2018-11-20T14:51:59.514Z,20.10
2018-11-20T14:54:46.759Z,19.03
2018-11-20T14:57:41.574Z,19.63
2018-11-20T15:00:29.210Z,19.80
2018-11-20T15:03:16.884Z,20.30
2018-11-20T15:06:08.290Z,19.13
2018-11-20T15:09:02.100Z,19.50
2018-11-20T15:11:51.190Z,21.03
2018-11-20T15:14:38.534Z,21.47
2018-11-20T15:17:36.854Z,32.20
2018-11-20T15:20:26.951Z,26.40
2018-11-20T15:23:22.060Z,29.93
2018-11-20T15:26:04.158Z,29.80
2018-11-20T15:28:49.340Z,29.50
2018-11-20T15:31:41.539Z,27.83
2018-11-20T15:34:29.939Z,26.07
2018-11-20T15:37:22.799Z,24.93
2018-11-20T15:40:20.855Z,27.83
2018-11-20T15:43:10.709Z,30.87
2018-11-20T15:46:08.794Z,26.07
2018-11-20T15:49:00.385Z,26.70
2018-11-20T15:52:07.914Z,24.53
2018-11-20T15:55:25.485Z,24.97
2018-11-20T15:58:13.624Z,27.63
2018-11-20T16:01:12.069Z,23.43
2018-11-20T16:04:13.624Z,25.93
2018-11-20T16:07:01.661Z,24.17
2018-11-20T16:09:51.649Z,24.83
2018-11-20T16:12:46.472Z,24.83
2018-11-20T16:15:33.804Z,24.80
2018-11-20T16:18:11.220Z,20.63
2018-11-20T16:20:58.611Z,21.17
2018-11-20T16:23:46.154Z,22.07
2018-11-20T16:26:33.751Z,23.90
2018-11-20T16:29:25.340Z,21.63
2018-11-20T16:32:13.946Z,26.10
2018-11-20T16:35:02.304Z,24.13
2018-11-20T16:37:50.200Z,27.50
2018-11-20T16:40:37.906Z,25.03
2018-11-20T16:43:25.303Z,26.80
2018-11-20T16:46:13.029Z,30.77
2018-11-20T16:49:00.298Z,24.10
2018-11-20T16:51:51.374Z,31.77
2018-11-20T16:54:46.599Z,25.50
2018-11-20T16:57:27.380Z,28.03
2018-11-20T17:00:15.075Z,35.87
2018-11-20T17:03:06.694Z,32.03
2018-11-20T17:05:54.301Z,30.70
2018-11-20T17:08:55.204Z,31.07
2018-11-20T17:11:43.440Z,30.70
2018-11-20T17:14:32.872Z,28.13
2018-11-20T17:17:24.600Z,31.40
2018-11-20T17:20:12.659Z,29.37
2018-11-20T17:23:08.264Z,30.97
2018-11-20T17:25:53.509Z,28.50
2018-11-20T17:28:41.053Z,33.70
2018-11-20T17:31:27.879Z,27.43
2018-11-20T17:34:15.183Z,31.47
2018-11-20T17:37:04.764Z,30.20
2018-11-20T17:40:00.204Z,26.83
2018-11-20T17:42:49.100Z,26.80
2018-11-20T17:45:36.574Z,26.83
2018-11-20T17:48:24.235Z,24.30
2018-11-20T17:51:19.270Z,27.67
2018-11-20T17:54:09.489Z,30.70
2018-11-20T17:56:57.194Z,33.57
2018-11-20T17:59:43.084Z,47.90
2018-11-20T18:02:41.125Z,40.03
2018-11-20T18:05:40.035Z,34.33
2018-11-20T18:08:28.064Z,29.23
2018-11-20T18:11:20.000Z,26.83
2018-11-20T18:14:07.459Z,33.63
2018-11-20T18:17:20.087Z,34.30
2018-11-20T18:19:56.864Z,38.00
2018-11-20T18:22:45.439Z,31.70
2018-11-20T18:25:47.230Z,29.13
2018-11-20T18:28:38.886Z,32.80
2018-11-20T18:31:26.339Z,27.03
2018-11-20T18:34:13.850Z,28.03
2018-11-20T18:37:03.185Z,33.20
2018-11-20T18:39:54.749Z,24.40
2018-11-20T18:42:52.285Z,27.83
2018-11-20T18:45:40.010Z,31.47
2018-11-20T18:48:35.005Z,30.30
2018-11-20T18:51:31.074Z,34.47
2018-11-20T18:54:10.319Z,27.40
2018-11-20T18:56:58.255Z,26.97
2018-11-20T18:59:45.784Z,28.13
2018-11-20T19:02:33.175Z,31.87
2018-11-20T19:05:20.900Z,29.67
2018-11-20T19:08:18.819Z,28.27
2018-11-20T19:11:06.235Z,27.23
2018-11-20T19:13:55.515Z,31.03
2018-11-20T19:16:42.764Z,30.20
2018-11-20T19:19:34.434Z,32.37
2018-11-20T19:22:29.855Z,36.87
2018-11-20T19:25:18.209Z,37.00
2018-11-20T19:28:10.669Z,37.47
2018-11-20T19:30:58.223Z,37.20
2018-11-20T19:33:45.960Z,34.47
2018-11-20T19:36:37.757Z,37.33
2018-11-20T19:39:29.785Z,41.80
2018-11-20T19:42:25.080Z,38.80
2018-11-20T19:45:08.892Z,41.77
2018-11-20T19:47:56.515Z,38.23
2018-11-20T19:50:44.504Z,37.83
2018-11-20T19:53:51.972Z,38.20
2018-11-20T19:56:42.999Z,34.57
2018-11-20T19:59:35.654Z,33.50
2018-11-20T20:02:40.100Z,30.73
2018-11-20T20:05:28.168Z,31.83
2018-11-20T20:08:20.169Z,30.90
2018-11-20T20:11:15.884Z,28.20
2018-11-20T20:13:56.286Z,31.43
2018-11-20T20:17:00.685Z,28.03
2018-11-20T20:20:05.454Z,31.60
2018-11-20T20:22:49.244Z,38.60
2018-11-20T20:25:56.785Z,39.50
2018-11-20T20:29:01.429Z,34.83
2018-11-20T20:32:08.281Z,40.40
2018-11-20T20:34:57.795Z,28.53
2018-11-20T20:37:45.120Z,29.03
2018-11-20T20:40:32.565Z,32.40
2018-11-20T20:43:34.285Z,32.90
2018-11-20T20:46:38.889Z,39.00
2018-11-20T20:49:21.554Z,36.77
2018-11-20T20:52:09.304Z,39.00
2018-11-20T20:55:07.085Z,37.30
2018-11-20T20:58:02.585Z,35.20
2018-11-20T21:00:58.570Z,34.93
2018-11-20T21:03:49.949Z,33.60
2018-11-20T21:06:42.414Z,37.93
2018-11-20T21:09:47.786Z,34.70
2018-11-20T21:12:49.814Z,32.20
2018-11-20T21:15:41.394Z,33.20
2018-11-20T21:18:29.484Z,30.13
2018-11-20T21:21:17.274Z,33.33
2018-11-20T21:23:57.769Z,37.30
2018-11-20T21:26:52.526Z,40.63
2018-11-20T21:29:41.136Z,43.53
2018-11-20T21:32:22.504Z,36.03
2018-11-20T21:35:15.345Z,42.53
2018-11-20T21:38:02.710Z,41.33
2018-11-20T21:41:06.970Z,36.37
2018-11-20T21:43:54.611Z,37.57
2018-11-20T21:46:42.594Z,38.27
2018-11-20T21:49:32.056Z,33.83
2018-11-20T21:52:16.760Z,39.43
2018-11-20T21:55:04.224Z,40.97
2018-11-20T21:58:05.441Z,39.20
2018-11-20T22:00:59.640Z,39.77
2018-11-20T22:04:00.735Z,40.97
2018-11-20T22:07:07.629Z,37.43
2018-11-20T22:10:04.165Z,33.80
2018-11-20T22:12:52.507Z,35.07
2018-11-20T22:15:59.289Z,33.17
2018-11-20T22:18:57.865Z,35.00
2018-11-20T22:21:52.824Z,32.00
2018-11-20T22:24:39.710Z,30.63
2018-11-20T22:27:47.464Z,35.17
2018-11-20T22:30:45.406Z,35.73
2018-11-20T22:33:34.499Z,46.53
2018-11-20T22:36:32.585Z,89.10
2018-11-20T22:39:24.914Z,36.77
2018-11-20T22:42:12.750Z,26.07
2018-11-20T22:45:00.710Z,32.10
2018-11-20T22:47:48.364Z,34.47
2018-11-20T22:50:30.834Z,151.93
2018-11-20T22:53:25.800Z,28.57
2018-11-20T22:56:23.618Z,198.43
2018-11-20T22:59:15.070Z,501.77
2018-11-20T23:02:09.986Z,139.63
2018-11-20T23:04:55.309Z,75.80
2018-11-20T23:07:47.074Z,31.20
2018-11-20T23:10:19.410Z,97.07
2018-11-20T23:12:49.264Z,89.03
2018-11-20T23:15:19.379Z,55.37
2018-11-20T23:17:49.699Z,94.47
2018-11-20T23:20:20.267Z,52.00
2018-11-20T23:22:50.874Z,55.10
2018-11-20T23:25:20.844Z,58.23
2018-11-20T23:27:50.634Z,66.23
2018-11-20T23:30:21.134Z,38.50
2018-11-20T23:32:51.655Z,45.33
2018-11-20T23:35:21.697Z,50.60
2018-11-20T23:37:52.550Z,51.17
2018-11-20T23:40:22.509Z,45.57
2018-11-20T23:42:53.227Z,44.33
2018-11-20T23:45:23.614Z,97.63
2018-11-20T23:47:53.405Z,204.30
2018-11-20T23:50:23.549Z,47.00
2018-11-20T23:52:53.824Z,25.07
2018-11-20T23:55:23.561Z,24.90
2018-11-20T23:57:54.259Z,25.07
